sensor_id;sensor_type;location;lat;lon;timestamp;pressure;altitude;pressure_sealevel;temperature;humidity
39075;BME280;24826;52.070;20.970;2023-04-06T00:00:32;61321.13;;;-147.04;46.52
39075;BME280;24826;52.070;20.970;2023-04-06T00:03:18;61285.31;;;-147.04;46.50
39075;BME280;24826;52.070;20.970;2023-04-06T00:06:04;61313.16;;;-147.04;46.37
39075;BME280;24826;52.070;20.970;2023-04-06T00:08:48;61315.16;;;-147.04;46.26
39075;BME280;24826;52.070;20.970;2023-04-06T00:11:33;61301.22;;;-147.04;44.73
39075;BME280;24826;52.070;20.970;2023-04-06T00:14:17;61313.16;;;-147.04;44.39
39075;BME280;24826;52.070;20.970;2023-04-06T00:17:02;61329.06;;;-147.04;44.23
39075;BME280;24826;52.070;20.970;2023-04-06T00:19:46;61323.09;;;-147.04;43.67
39075;BME280;24826;52.070;20.970;2023-04-06T00:22:31;61317.13;;;-147.04;44.47
39075;BME280;24826;52.070;20.970;2023-04-06T00:25:15;61321.13;;;-147.04;44.04
39075;BME280;24826;52.070;20.970;2023-04-06T00:28:00;61352.94;;;-147.04;44.24
39075;BME280;24826;52.070;20.970;2023-04-06T00:30:44;61366.84;;;-147.04;45.12
39075;BME280;24826;52.070;20.970;2023-04-06T00:33:29;61364.84;;;-147.04;45.02
39075;BME280;24826;52.070;20.970;2023-04-06T00:36:13;61297.25;;;-147.04;44.66
39075;BME280;24826;52.070;20.970;2023-04-06T00:38:58;61297.25;;;-147.04;45.18
39075;BME280;24826;52.070;20.970;2023-04-06T00:41:46;61325.09;;;-147.04;45.17
39075;BME280;24826;52.070;20.970;2023-04-06T00:44:33;61317.13;;;-147.04;45.40
39075;BME280;24826;52.070;20.970;2023-04-06T00:47:18;61295.25;;;-147.04;45.38
39075;BME280;24826;52.070;20.970;2023-04-06T00:50:02;61452.34;;;-147.04;45.74
39075;BME280;24826;52.070;20.970;2023-04-06T00:52:47;61283.34;;;-147.04;45.49
39075;BME280;24826;52.070;20.970;2023-04-06T00:55:31;61249.53;;;-147.04;46.00
39075;BME280;24826;52.070;20.970;2023-04-06T00:58:15;61327.06;;;-147.04;45.52
39075;BME280;24826;52.070;20.970;2023-04-06T01:01:00;61301.22;;;-147.04;45.34
39075;BME280;24826;52.070;20.970;2023-04-06T01:03:45;61309.19;;;-147.04;45.46
39075;BME280;24826;52.070;20.970;2023-04-06T01:06:33;61287.31;;;-147.04;45.70
39075;BME280;24826;52.070;20.970;2023-04-06T01:09:17;61317.13;;;-147.04;45.86
39075;BME280;24826;52.070;20.970;2023-04-06T01:12:02;61289.28;;;-147.04;45.39
39075;BME280;24826;52.070;20.970;2023-04-06T01:14:47;61307.19;;;-147.04;45.26
39075;BME280;24826;52.070;20.970;2023-04-06T01:17:32;61309.19;;;-147.04;45.42
39075;BME280;24826;52.070;20.970;2023-04-06T01:20:16;61301.22;;;-147.04;45.53
39075;BME280;24826;52.070;20.970;2023-04-06T01:23:00;61291.28;;;-147.04;45.31
39075;BME280;24826;52.070;20.970;2023-04-06T01:25:45;61325.09;;;-147.04;45.01
39075;BME280;24826;52.070;20.970;2023-04-06T01:28:29;61352.94;;;-147.04;46.16
39075;BME280;24826;52.070;20.970;2023-04-06T01:31:13;61297.25;;;-147.04;45.21
39075;BME280;24826;52.070;20.970;2023-04-06T01:33:58;61315.16;;;-147.04;45.34
39075;BME280;24826;52.070;20.970;2023-04-06T01:36:43;61281.34;;;-147.04;45.32
39075;BME280;24826;52.070;20.970;2023-04-06T01:39:28;61307.19;;;-147.04;46.02
39075;BME280;24826;52.070;20.970;2023-04-06T01:42:13;61301.22;;;-147.04;46.72
39075;BME280;24826;52.070;20.970;2023-04-06T01:44:58;61321.13;;;-147.04;47.19
39075;BME280;24826;52.070;20.970;2023-04-06T01:47:42;61309.19;;;-147.04;47.01
39075;BME280;24826;52.070;20.970;2023-04-06T01:50:26;61285.31;;;-147.04;47.96
39075;BME280;24826;52.070;20.970;2023-04-06T01:53:11;61301.22;;;-147.04;47.98
39075;BME280;24826;52.070;20.970;2023-04-06T01:55:56;61281.34;;;-147.04;48.33
39075;BME280;24826;52.070;20.970;2023-04-06T01:58:40;61333.03;;;-147.04;48.48
39075;BME280;24826;52.070;20.970;2023-04-06T02:01:25;61277.38;;;-147.04;48.83
39075;BME280;24826;52.070;20.970;2023-04-06T02:04:09;61325.09;;;-147.04;48.88
39075;BME280;24826;52.070;20.970;2023-04-06T02:06:53;61281.34;;;-147.04;48.81
39075;BME280;24826;52.070;20.970;2023-04-06T02:09:38;61346.97;;;-147.04;48.92
39075;BME280;24826;52.070;20.970;2023-04-06T02:12:22;61297.25;;;-147.04;49.50
39075;BME280;24826;52.070;20.970;2023-04-06T02:15:09;61325.09;;;-147.04;49.09
39075;BME280;24826;52.070;20.970;2023-04-06T02:17:53;61321.13;;;-147.04;49.64
39075;BME280;24826;52.070;20.970;2023-04-06T02:20:38;61309.19;;;-147.04;49.00
39075;BME280;24826;52.070;20.970;2023-04-06T02:23:22;61315.16;;;-147.04;49.06
39075;BME280;24826;52.070;20.970;2023-04-06T02:26:06;61299.25;;;-147.04;49.38
39075;BME280;24826;52.070;20.970;2023-04-06T02:28:51;61281.34;;;-147.04;48.65
39075;BME280;24826;52.070;20.970;2023-04-06T02:31:36;61263.44;;;-147.04;48.72
39075;BME280;24826;52.070;20.970;2023-04-06T02:34:20;61321.13;;;-147.04;48.64
39075;BME280;24826;52.070;20.970;2023-04-06T02:37:05;61331.06;;;-147.04;48.63
39075;BME280;24826;52.070;20.970;2023-04-06T02:39:50;61315.16;;;-147.04;48.45
39075;BME280;24826;52.070;20.970;2023-04-06T02:42:45;61335.03;;;-147.04;47.81
39075;BME280;24826;52.070;20.970;2023-04-06T02:45:31;61265.44;;;-147.04;48.33
39075;BME280;24826;52.070;20.970;2023-04-06T02:48:15;61297.25;;;-147.04;47.78
39075;BME280;24826;52.070;20.970;2023-04-06T02:50:59;61299.25;;;-147.04;47.82
39075;BME280;24826;52.070;20.970;2023-04-06T02:53:44;61321.13;;;-147.04;47.45
39075;BME280;24826;52.070;20.970;2023-04-06T02:56:28;61297.25;;;-147.04;47.32
39075;BME280;24826;52.070;20.970;2023-04-06T02:59:13;61293.28;;;-147.04;48.27
39075;BME280;24826;52.070;20.970;2023-04-06T03:01:57;61335.03;;;-147.04;48.09
39075;BME280;24826;52.070;20.970;2023-04-06T03:04:42;61301.22;;;-147.04;48.60
39075;BME280;24826;52.070;20.970;2023-04-06T03:07:26;61480.19;;;-147.04;49.26
39075;BME280;24826;52.070;20.970;2023-04-06T03:10:10;61317.13;;;-147.04;48.90
39075;BME280;24826;52.070;20.970;2023-04-06T03:12:55;61358.88;;;-147.04;49.33
39075;BME280;24826;52.070;20.970;2023-04-06T03:15:39;61293.28;;;-147.04;49.25
39075;BME280;24826;52.070;20.970;2023-04-06T03:18:25;61321.13;;;-147.04;49.09
39075;BME280;24826;52.070;20.970;2023-04-06T03:21:09;61273.38;;;-147.04;49.09
39075;BME280;24826;52.070;20.970;2023-04-06T03:23:53;61291.28;;;-147.04;49.12
39075;BME280;24826;52.070;20.970;2023-04-06T03:26:38;61311.16;;;-147.04;49.65
39075;BME280;24826;52.070;20.970;2023-04-06T03:29:23;61303.22;;;-147.04;50.58
39075;BME280;24826;52.070;20.970;2023-04-06T03:32:07;61297.25;;;-147.04;51.21
39075;BME280;24826;52.070;20.970;2023-04-06T03:34:52;61327.06;;;-147.04;51.70
39075;BME280;24826;52.070;20.970;2023-04-06T03:37:36;61321.13;;;-147.04;51.18
39075;BME280;24826;52.070;20.970;2023-04-06T03:40:21;61348.94;;;-147.04;51.77
39075;BME280;24826;52.070;20.970;2023-04-06T03:43:05;61291.28;;;-147.04;51.87
39075;BME280;24826;52.070;20.970;2023-04-06T03:45:50;61323.09;;;-147.04;51.30
39075;BME280;24826;52.070;20.970;2023-04-06T03:48:34;61321.13;;;-147.04;51.60
39075;BME280;24826;52.070;20.970;2023-04-06T03:51:19;61348.94;;;-147.04;51.83
39075;BME280;24826;52.070;20.970;2023-04-06T03:54:03;61305.19;;;-147.04;51.54
39075;BME280;24826;52.070;20.970;2023-04-06T03:56:48;61305.19;;;-147.04;51.80
39075;BME280;24826;52.070;20.970;2023-04-06T03:59:32;61352.94;;;-147.04;52.07
39075;BME280;24826;52.070;20.970;2023-04-06T04:02:16;61303.22;;;-147.04;52.67
39075;BME280;24826;52.070;20.970;2023-04-06T04:05:01;61331.06;;;-147.04;52.83
39075;BME280;24826;52.070;20.970;2023-04-06T04:07:45;61303.22;;;-147.04;53.31
39075;BME280;24826;52.070;20.970;2023-04-06T04:10:30;61303.22;;;-147.04;53.29
39075;BME280;24826;52.070;20.970;2023-04-06T04:13:14;61317.13;;;-147.04;53.62
39075;BME280;24826;52.070;20.970;2023-04-06T04:15:58;61339.00;;;-147.04;53.47
39075;BME280;24826;52.070;20.970;2023-04-06T04:18:44;61323.09;;;-147.04;53.67
39075;BME280;24826;52.070;20.970;2023-04-06T04:21:29;61335.03;;;-147.04;53.63
39075;BME280;24826;52.070;20.970;2023-04-06T04:24:15;61301.22;;;-147.04;53.82
39075;BME280;24826;52.070;20.970;2023-04-06T04:26:59;61325.09;;;-147.04;53.46
39075;BME280;24826;52.070;20.970;2023-04-06T04:29:45;61341.00;;;-147.04;53.06
39075;BME280;24826;52.070;20.970;2023-04-06T04:32:29;61350.94;;;-147.04;53.11
39075;BME280;24826;52.070;20.970;2023-04-06T04:35:14;61380.75;;;-147.04;53.83
39075;BME280;24826;52.070;20.970;2023-04-06T04:37:58;61380.75;;;-147.04;53.14
39075;BME280;24826;52.070;20.970;2023-04-06T04:40:42;61368.84;;;-147.04;53.30
39075;BME280;24826;52.070;20.970;2023-04-06T04:43:26;61368.84;;;-147.04;52.99
39075;BME280;24826;52.070;20.970;2023-04-06T04:46:11;61356.91;;;-147.04;53.25
39075;BME280;24826;52.070;20.970;2023-04-06T04:48:56;61372.81;;;-147.04;53.31
39075;BME280;24826;52.070;20.970;2023-04-06T04:51:40;61366.84;;;-147.04;53.60
39075;BME280;24826;52.070;20.970;2023-04-06T04:54:24;61362.88;;;-147.04;53.84
39075;BME280;24826;52.070;20.970;2023-04-06T04:57:09;61323.09;;;-147.04;53.49
39075;BME280;24826;52.070;20.970;2023-04-06T04:59:54;61392.69;;;-147.04;53.32
39075;BME280;24826;52.070;20.970;2023-04-06T05:02:39;61372.81;;;-147.04;52.64
39075;BME280;24826;52.070;20.970;2023-04-06T05:05:23;61380.75;;;-147.04;53.69
39075;BME280;24826;52.070;20.970;2023-04-06T05:08:08;61539.84;;;-147.04;53.38
39075;BME280;24826;52.070;20.970;2023-04-06T05:10:52;61368.84;;;-147.04;53.62
39075;BME280;24826;52.070;20.970;2023-04-06T05:13:37;61356.91;;;-147.04;53.65
39075;BME280;24826;52.070;20.970;2023-04-06T05:16:21;61358.88;;;-147.04;53.77
39075;BME280;24826;52.070;20.970;2023-04-06T05:19:06;61327.06;;;-147.04;53.34
39075;BME280;24826;52.070;20.970;2023-04-06T05:21:50;61414.56;;;-147.04;53.89
39075;BME280;24826;52.070;20.970;2023-04-06T05:24:34;61348.94;;;-147.04;54.08
39075;BME280;24826;52.070;20.970;2023-04-06T05:27:19;61378.78;;;-147.04;53.66
39075;BME280;24826;52.070;20.970;2023-04-06T05:30:04;61384.75;;;-147.04;53.20
39075;BME280;24826;52.070;20.970;2023-04-06T05:32:50;61416.56;;;-147.04;52.85
39075;BME280;24826;52.070;20.970;2023-04-06T05:35:34;61354.91;;;-147.04;53.36
39075;BME280;24826;52.070;20.970;2023-04-06T05:38:19;61384.75;;;-147.04;53.61
39075;BME280;24826;52.070;20.970;2023-04-06T05:41:03;61392.69;;;-147.04;52.83
39075;BME280;24826;52.070;20.970;2023-04-06T05:43:48;61388.72;;;-147.04;52.27
39075;BME280;24826;52.070;20.970;2023-04-06T05:46:32;61352.94;;;-147.04;51.16
39075;BME280;24826;52.070;20.970;2023-04-06T05:49:16;61384.75;;;-147.04;51.15
39075;BME280;24826;52.070;20.970;2023-04-06T05:52:01;61402.63;;;-147.04;50.01
39075;BME280;24826;52.070;20.970;2023-04-06T05:54:45;61370.81;;;-147.04;49.46
39075;BME280;24826;52.070;20.970;2023-04-06T05:57:30;61468.25;;;-147.04;49.02
39075;BME280;24826;52.070;20.970;2023-04-06T06:00:14;61400.66;;;-147.04;47.85
39075;BME280;24826;52.070;20.970;2023-04-06T06:02:59;61358.88;;;-147.04;46.62
39075;BME280;24826;52.070;20.970;2023-04-06T06:05:43;61448.38;;;-147.04;45.95
39075;BME280;24826;52.070;20.970;2023-04-06T06:08:28;61517.97;;;-147.04;46.52
39075;BME280;24826;52.070;20.970;2023-04-06T06:11:12;61376.78;;;-147.04;47.07
39075;BME280;24826;52.070;20.970;2023-04-06T06:13:57;61368.84;;;-147.04;46.63
39075;BME280;24826;52.070;20.970;2023-04-06T06:16:44;61378.78;;;-147.04;46.15
39075;BME280;24826;52.070;20.970;2023-04-06T06:19:29;61398.66;;;-147.04;46.16
39075;BME280;24826;52.070;20.970;2023-04-06T06:22:14;61380.75;;;-147.04;45.74
39075;BME280;24826;52.070;20.970;2023-04-06T06:24:59;61406.63;;;-147.04;46.48
39075;BME280;24826;52.070;20.970;2023-04-06T06:27:43;61384.75;;;-147.04;45.97
39075;BME280;24826;52.070;20.970;2023-04-06T06:30:27;61380.75;;;-147.04;45.68
39075;BME280;24826;52.070;20.970;2023-04-06T06:33:12;61402.63;;;-147.04;45.29
39075;BME280;24826;52.070;20.970;2023-04-06T06:35:57;61372.81;;;-147.04;45.14
39075;BME280;24826;52.070;20.970;2023-04-06T06:38:41;61394.69;;;-147.04;44.56
39075;BME280;24826;52.070;20.970;2023-04-06T06:41:26;61398.66;;;-147.04;44.60
39075;BME280;24826;52.070;20.970;2023-04-06T06:44:10;61398.66;;;-147.04;44.82
39075;BME280;24826;52.070;20.970;2023-04-06T06:46:55;61356.91;;;-147.04;45.06
39075;BME280;24826;52.070;20.970;2023-04-06T06:49:41;61362.88;;;-147.04;44.61
39075;BME280;24826;52.070;20.970;2023-04-06T06:52:26;61444.41;;;-147.04;44.48
39075;BME280;24826;52.070;20.970;2023-04-06T06:55:13;61382.75;;;-147.04;44.67
39075;BME280;24826;52.070;20.970;2023-04-06T06:57:59;61418.53;;;-147.04;44.88
39075;BME280;24826;52.070;20.970;2023-04-06T07:00:44;61396.66;;;-147.04;44.83
39075;BME280;24826;52.070;20.970;2023-04-06T07:03:28;61360.88;;;-147.04;45.33
39075;BME280;24826;52.070;20.970;2023-04-06T07:06:12;61378.78;;;-147.04;45.08
39075;BME280;24826;52.070;20.970;2023-04-06T07:08:57;61545.81;;;-147.04;45.08
39075;BME280;24826;52.070;20.970;2023-04-06T07:11:42;61368.84;;;-147.04;45.16
39075;BME280;24826;52.070;20.970;2023-04-06T07:14:30;61394.69;;;-147.04;45.34
39075;BME280;24826;52.070;20.970;2023-04-06T07:17:14;61390.72;;;-147.04;45.49
39075;BME280;24826;52.070;20.970;2023-04-06T07:19:58;61583.59;;;-147.04;45.67
39075;BME280;24826;52.070;20.970;2023-04-06T07:22:43;61364.84;;;-147.04;45.08
39075;BME280;24826;52.070;20.970;2023-04-06T07:25:31;61436.44;;;-147.04;45.60
39075;BME280;24826;52.070;20.970;2023-04-06T07:28:15;61404.63;;;-147.04;45.50
39075;BME280;24826;52.070;20.970;2023-04-06T07:30:59;61400.66;;;-147.04;45.71
39075;BME280;24826;52.070;20.970;2023-04-06T07:33:43;61382.75;;;-147.04;45.10
39075;BME280;24826;52.070;20.970;2023-04-06T07:36:29;61376.78;;;-147.04;45.00
39075;BME280;24826;52.070;20.970;2023-04-06T07:39:13;61376.78;;;-147.04;44.99
39075;BME280;24826;52.070;20.970;2023-04-06T07:41:57;61386.72;;;-147.04;44.63
39075;BME280;24826;52.070;20.970;2023-04-06T07:44:42;61352.94;;;-147.04;45.36
39075;BME280;24826;52.070;20.970;2023-04-06T07:47:26;61392.69;;;-147.04;44.78
39075;BME280;24826;52.070;20.970;2023-04-06T07:50:14;61370.81;;;-147.04;45.00
39075;BME280;24826;52.070;20.970;2023-04-06T07:52:58;61370.81;;;-147.04;45.16
39075;BME280;24826;52.070;20.970;2023-04-06T07:55:43;61362.88;;;-147.04;44.85
39075;BME280;24826;52.070;20.970;2023-04-06T07:58:28;61396.66;;;-147.04;45.06
39075;BME280;24826;52.070;20.970;2023-04-06T08:01:13;61388.72;;;-147.04;45.15
39075;BME280;24826;52.070;20.970;2023-04-06T08:03:57;61372.81;;;-147.04;45.06
39075;BME280;24826;52.070;20.970;2023-04-06T08:06:42;61366.84;;;-147.04;45.65
39075;BME280;24826;52.070;20.970;2023-04-06T08:09:27;61382.75;;;-147.04;45.66
39075;BME280;24826;52.070;20.970;2023-04-06T08:12:11;61331.06;;;-147.04;46.20
39075;BME280;24826;52.070;20.970;2023-04-06T08:14:56;61350.94;;;-147.04;46.53
39075;BME280;24826;52.070;20.970;2023-04-06T08:17:40;61372.81;;;-147.04;46.58
39075;BME280;24826;52.070;20.970;2023-04-06T08:20:25;61376.78;;;-147.04;47.35
39075;BME280;24826;52.070;20.970;2023-04-06T08:23:09;61368.84;;;-147.04;48.59
39075;BME280;24826;52.070;20.970;2023-04-06T08:25:55;61380.75;;;-147.04;48.72
39075;BME280;24826;52.070;20.970;2023-04-06T08:28:39;61358.88;;;-147.04;48.74
39075;BME280;24826;52.070;20.970;2023-04-06T08:31:31;61368.84;;;-147.04;49.23
39075;BME280;24826;52.070;20.970;2023-04-06T08:34:15;61350.94;;;-147.04;48.18
39075;BME280;24826;52.070;20.970;2023-04-06T08:37:01;61424.50;;;-147.04;47.86
39075;BME280;24826;52.070;20.970;2023-04-06T08:39:45;61462.28;;;-147.04;47.80
39075;BME280;24826;52.070;20.970;2023-04-06T08:42:32;61380.75;;;-147.04;47.77
39075;BME280;24826;52.070;20.970;2023-04-06T08:45:17;61376.78;;;-147.04;47.91
39075;BME280;24826;52.070;20.970;2023-04-06T08:48:06;61366.84;;;-147.04;48.27
39075;BME280;24826;52.070;20.970;2023-04-06T08:50:50;61342.97;;;-147.04;48.80
39075;BME280;24826;52.070;20.970;2023-04-06T08:53:36;61390.72;;;-147.04;49.22
39075;BME280;24826;52.070;20.970;2023-04-06T08:56:21;61352.94;;;-147.04;49.62
39075;BME280;24826;52.070;20.970;2023-04-06T08:59:07;61358.88;;;-147.04;49.61
39075;BME280;24826;52.070;20.970;2023-04-06T09:01:52;61342.97;;;-147.04;50.80
39075;BME280;24826;52.070;20.970;2023-04-06T09:04:37;61348.94;;;-147.04;51.09
39075;BME280;24826;52.070;20.970;2023-04-06T09:07:22;61348.94;;;-147.04;52.27
39075;BME280;24826;52.070;20.970;2023-04-06T09:10:08;61368.84;;;-147.04;53.14
39075;BME280;24826;52.070;20.970;2023-04-06T09:13:05;61348.94;;;-147.04;54.09
39075;BME280;24826;52.070;20.970;2023-04-06T09:16:03;61341.00;;;-147.04;54.90
39075;BME280;24826;52.070;20.970;2023-04-06T09:18:49;61368.84;;;-147.04;54.84
39075;BME280;24826;52.070;20.970;2023-04-06T09:21:34;61333.03;;;-147.04;54.82
39075;BME280;24826;52.070;20.970;2023-04-06T09:24:18;61366.84;;;-147.04;54.29
39075;BME280;24826;52.070;20.970;2023-04-06T09:27:09;61329.06;;;-147.04;54.49
39075;BME280;24826;52.070;20.970;2023-04-06T09:30:11;61366.84;;;-147.04;54.18
39075;BME280;24826;52.070;20.970;2023-04-06T09:32:59;61364.84;;;-147.04;53.88
39075;BME280;24826;52.070;20.970;2023-04-06T09:35:49;61352.94;;;-147.04;53.69
39075;BME280;24826;52.070;20.970;2023-04-06T09:38:38;61341.00;;;-147.04;53.74
39075;BME280;24826;52.070;20.970;2023-04-06T09:41:37;61341.00;;;-147.04;53.51
39075;BME280;24826;52.070;20.970;2023-04-06T09:44:22;61301.22;;;-147.04;54.07
39075;BME280;24826;52.070;20.970;2023-04-06T09:47:22;61402.63;;;-147.04;54.87
39075;BME280;24826;52.070;20.970;2023-04-06T09:50:18;61217.72;;;-147.04;57.65
39075;BME280;24826;52.070;20.970;2023-04-06T09:56:25;61289.28;;;-147.04;61.84
39075;BME280;24826;52.070;20.970;2023-04-06T09:59:48;61229.66;;;-147.04;66.07
39075;BME280;24826;52.070;20.970;2023-04-06T10:06:53;61335.03;;;-147.04;69.29
39075;BME280;24826;52.070;20.970;2023-04-06T10:10:23;61177.94;;;-147.04;73.75
39075;BME280;24826;52.070;20.970;2023-04-06T10:13:31;61221.69;;;-147.04;77.63
39075;BME280;24826;52.070;20.970;2023-04-06T10:16:18;61372.81;;;-147.04;80.85
39075;BME280;24826;52.070;20.970;2023-04-06T10:19:12;61346.97;;;-147.04;80.75
39075;BME280;24826;52.070;20.970;2023-04-06T10:21:59;61337.00;;;-147.04;82.41
39075;BME280;24826;52.070;20.970;2023-04-06T10:24:53;61368.84;;;-147.04;82.30
39075;BME280;24826;52.070;20.970;2023-04-06T10:27:48;61364.84;;;-147.04;83.83
39075;BME280;24826;52.070;20.970;2023-04-06T10:31:09;61418.53;;;-147.04;86.13
39075;BME280;24826;52.070;20.970;2023-04-06T10:34:03;61557.75;;;-147.04;86.24
39075;BME280;24826;52.070;20.970;2023-04-06T10:37:11;61245.56;;;-147.04;87.21
39075;BME280;24826;52.070;20.970;2023-04-06T10:40:25;61368.84;;;-147.04;87.91
39075;BME280;24826;52.070;20.970;2023-04-06T10:46:10;61255.50;;;-147.04;89.43
39075;BME280;24826;52.070;20.970;2023-04-06T10:48:56;61356.91;;;-147.04;88.52
39075;BME280;24826;52.070;20.970;2023-04-06T10:51:53;61346.97;;;-147.04;87.61
39075;BME280;24826;52.070;20.970;2023-04-06T11:04:34;61352.94;;;-147.04;91.88
39075;BME280;24826;52.070;20.970;2023-04-06T11:07:40;61366.84;;;-147.04;92.33
39075;BME280;24826;52.070;20.970;2023-04-06T11:10:29;61372.81;;;-147.04;92.08
39075;BME280;24826;52.070;20.970;2023-04-06T11:13:15;61370.81;;;-147.04;91.60
39075;BME280;24826;52.070;20.970;2023-04-06T11:15:59;61384.75;;;-147.04;91.37
39075;BME280;24826;52.070;20.970;2023-04-06T11:18:52;61348.94;;;-147.04;92.37
39075;BME280;24826;52.070;20.970;2023-04-06T11:24:27;61372.81;;;-147.04;92.85
39075;BME280;24826;52.070;20.970;2023-04-06T11:27:12;61341.00;;;-147.04;92.48
39075;BME280;24826;52.070;20.970;2023-04-06T11:30:02;61396.66;;;-147.04;92.85
39075;BME280;24826;52.070;20.970;2023-04-06T11:32:47;61372.81;;;-147.04;94.08
39075;BME280;24826;52.070;20.970;2023-04-06T11:35:31;61374.78;;;-147.04;94.76
39075;BME280;24826;52.070;20.970;2023-04-06T11:38:18;61348.94;;;-147.04;96.29
39075;BME280;24826;52.070;20.970;2023-04-06T11:41:03;61370.81;;;-147.04;96.76
39075;BME280;24826;52.070;20.970;2023-04-06T11:43:47;61309.19;;;-147.04;96.99
39075;BME280;24826;52.070;20.970;2023-04-06T11:46:32;61368.84;;;-147.04;97.54
39075;BME280;24826;52.070;20.970;2023-04-06T11:49:17;61368.84;;;-147.04;97.19
39075;BME280;24826;52.070;20.970;2023-04-06T11:52:01;61362.88;;;-147.04;95.70
39075;BME280;24826;52.070;20.970;2023-04-06T11:54:47;61368.84;;;-147.04;94.54
39075;BME280;24826;52.070;20.970;2023-04-06T11:57:33;61360.88;;;-147.04;94.39
39075;BME280;24826;52.070;20.970;2023-04-06T12:00:18;61384.75;;;-147.04;93.33
39075;BME280;24826;52.070;20.970;2023-04-06T12:03:04;61380.75;;;-147.04;93.99
39075;BME280;24826;52.070;20.970;2023-04-06T12:05:48;61341.00;;;-147.04;95.00
39075;BME280;24826;52.070;20.970;2023-04-06T12:08:33;61376.78;;;-147.04;94.78
39075;BME280;24826;52.070;20.970;2023-04-06T12:11:18;61346.97;;;-147.04;95.60
39075;BME280;24826;52.070;20.970;2023-04-06T12:14:04;61360.88;;;-147.04;95.89
39075;BME280;24826;52.070;20.970;2023-04-06T12:16:49;61368.84;;;-147.04;96.12
39075;BME280;24826;52.070;20.970;2023-04-06T12:19:34;61360.88;;;-147.04;95.31
39075;BME280;24826;52.070;20.970;2023-04-06T12:22:18;61356.91;;;-147.04;95.27
39075;BME280;24826;52.070;20.970;2023-04-06T12:25:03;61376.78;;;-147.04;94.19
39075;BME280;24826;52.070;20.970;2023-04-06T12:27:47;61376.78;;;-147.04;96.57
39075;BME280;24826;52.070;20.970;2023-04-06T12:30:32;61372.81;;;-147.04;95.83
39075;BME280;24826;52.070;20.970;2023-04-06T12:33:16;61370.81;;;-147.04;95.88
39075;BME280;24826;52.070;20.970;2023-04-06T12:36:01;61354.91;;;-147.04;95.20
39075;BME280;24826;52.070;20.970;2023-04-06T12:38:47;61335.03;;;-147.04;96.05
39075;BME280;24826;52.070;20.970;2023-04-06T12:41:32;61337.00;;;-147.04;95.99
39075;BME280;24826;52.070;20.970;2023-04-06T12:44:17;61331.06;;;-147.04;95.44
39075;BME280;24826;52.070;20.970;2023-04-06T12:47:01;61366.84;;;-147.04;95.65
39075;BME280;24826;52.070;20.970;2023-04-06T12:49:46;61360.88;;;-147.04;97.04
39075;BME280;24826;52.070;20.970;2023-04-06T12:52:31;61333.03;;;-147.04;96.88
39075;BME280;24826;52.070;20.970;2023-04-06T12:55:16;61333.03;;;-147.04;96.04
39075;BME280;24826;52.070;20.970;2023-04-06T12:58:01;61372.81;;;-147.04;95.87
39075;BME280;24826;52.070;20.970;2023-04-06T13:00:50;61352.94;;;-147.04;94.74
39075;BME280;24826;52.070;20.970;2023-04-06T13:03:35;61337.00;;;-147.04;95.61
39075;BME280;24826;52.070;20.970;2023-04-06T13:06:20;61366.84;;;-147.04;93.83
39075;BME280;24826;52.070;20.970;2023-04-06T13:09:04;61372.81;;;-147.04;93.45
39075;BME280;24826;52.070;20.970;2023-04-06T13:11:49;61364.84;;;-147.04;93.31
39075;BME280;24826;52.070;20.970;2023-04-06T13:14:34;61364.84;;;-147.04;93.92
39075;BME280;24826;52.070;20.970;2023-04-06T13:17:19;61339.00;;;-147.04;92.92
39075;BME280;24826;52.070;20.970;2023-04-06T13:20:05;61370.81;;;-147.04;93.10
39075;BME280;24826;52.070;20.970;2023-04-06T13:22:50;61388.72;;;-147.04;94.33
39075;BME280;24826;52.070;20.970;2023-04-06T13:25:35;61368.84;;;-147.04;95.62
39075;BME280;24826;52.070;20.970;2023-04-06T13:28:19;61372.81;;;-147.04;95.80
39075;BME280;24826;52.070;20.970;2023-04-06T13:31:04;61555.75;;;-147.04;96.06
39075;BME280;24826;52.070;20.970;2023-04-06T13:33:48;61386.72;;;-147.04;97.84
39075;BME280;24826;52.070;20.970;2023-04-06T13:36:33;61448.38;;;-147.04;97.31
39075;BME280;24826;52.070;20.970;2023-04-06T13:39:18;61374.78;;;-147.04;98.60
39075;BME280;24826;52.070;20.970;2023-04-06T13:42:02;61362.88;;;-147.04;99.63
39075;BME280;24826;52.070;20.970;2023-04-06T13:44:46;61354.91;;;-147.04;100.00
39075;BME280;24826;52.070;20.970;2023-04-06T13:47:31;61374.78;;;-147.04;99.29
39075;BME280;24826;52.070;20.970;2023-04-06T13:50:15;61360.88;;;-147.04;99.09
39075;BME280;24826;52.070;20.970;2023-04-06T13:53:00;61372.81;;;-147.04;98.66
39075;BME280;24826;52.070;20.970;2023-04-06T13:55:52;61376.78;;;-147.04;100.00
39075;BME280;24826;52.070;20.970;2023-04-06T13:58:37;61388.72;;;-147.04;100.00
39075;BME280;24826;52.070;20.970;2023-04-06T14:01:21;61360.88;;;-147.04;100.00
39075;BME280;24826;52.070;20.970;2023-04-06T14:04:06;61360.88;;;-147.04;100.00
39075;BME280;24826;52.070;20.970;2023-04-06T14:06:50;61352.94;;;-147.04;100.00
39075;BME280;24826;52.070;20.970;2023-04-06T14:09:34;61364.84;;;-147.04;100.00
39075;BME280;24826;52.070;20.970;2023-04-06T14:12:19;61342.97;;;-147.04;100.00
39075;BME280;24826;52.070;20.970;2023-04-06T14:15:04;61368.84;;;-147.04;100.00
39075;BME280;24826;52.070;20.970;2023-04-06T14:17:48;61350.94;;;-147.04;100.00
39075;BME280;24826;52.070;20.970;2023-04-06T14:20:33;61356.91;;;-147.04;100.00
39075;BME280;24826;52.070;20.970;2023-04-06T14:23:17;61321.13;;;-147.04;100.00
39075;BME280;24826;52.070;20.970;2023-04-06T14:26:06;61344.97;;;-147.04;100.00
39075;BME280;24826;52.070;20.970;2023-04-06T14:28:50;61317.13;;;-147.04;100.00